CYEG/YEG METAR and TAF weather

Enter ICAO airport designator
Station Type Date Time Source
CYEG METAR 2021/07/27 21:00 UTC NOAA

CYEG 272100Z 36005KT 300V020 15SM SCT230 23/10 A3003 RMK CI3 SLP170 DENSITY ALT 3800FT


Station Type Date Time Source
CYEG Decoded METAR 2021/07/27 21:00 UTC NOAA

Edmonton International, Alta., Canada (CYEG) 53-18N 113-35W 723M
Jul 27, 2021 - 05:00 PM EDT / 2021.07.27 2100 UTC
Wind: from the N (360 degrees) at 6 MPH (5 KT) (direction variable):0
Visibility: 15 mile(s):0
Sky conditions: partly cloudy
Temperature: 73 F (23 C)
Dew Point: 50 F (10 C)
Relative Humidity: 43%
Pressure (altimeter): 30.03 in. Hg (1016 hPa)
ob: CYEG 272100Z 36005KT 300V020 15SM SCT230 23/10 A3003 RMK CI3 SLP170 DENSITY ALT 3800FT
cycle: 21

Station Type Date Time Source
CYEG TAF 2021/07/27 21:42 UTC NOAA

TAF TAF CYEG 272038Z 2721/2818 34010KT P6SM FEW080
BECMG 2800/2802 02006KT
FM280400 06006KT P6SM SCT060
FM280800 08005KT P6SM VCTS BKN060CB
BECMG 2812/2814 14008KT
FM281600 16012KT P6SM FEW060
RMK NXT FCST BY 280000Z

Example: see airport list